createdAt,value
2023-03-12T00:00:06.899Z,553.63
2023-03-12T00:05:06.834Z,557.29
2023-03-12T00:10:06.799Z,558.22
2023-03-12T00:15:06.676Z,561.94
2023-03-12T00:20:06.662Z,560.07
2023-03-12T00:25:06.602Z,560.54
2023-03-12T00:30:06.519Z,559.61
2023-03-12T00:35:06.443Z,557.29
2023-03-12T00:40:06.403Z,556.83
2023-03-12T00:45:06.309Z,550.47
2023-03-12T00:50:06.591Z,543.37
2023-03-12T00:55:06.160Z,542.06
2023-03-12T01:00:06.183Z,533.91
2023-03-12T01:10:54.951Z,572.92
2023-03-12T01:15:54.915Z,563.82
2023-03-12T01:20:54.805Z,556.83
2023-03-12T01:25:54.762Z,557.75
2023-03-12T01:30:54.684Z,553.18
2023-03-12T01:35:54.676Z,546.46
2023-03-12T01:40:54.643Z,543.81
2023-03-12T01:45:54.487Z,540.76
2023-03-12T01:50:54.427Z,536.46
2023-03-12T01:55:54.352Z,533.91
2023-03-12T02:00:54.324Z,534.75
2023-03-12T02:05:54.236Z,532.22
2023-03-12T02:10:54.181Z,532.22
2023-03-12T02:15:54.076Z,528.47
2023-03-12T02:20:54.078Z,528.47
2023-03-12T02:25:54.000Z,527.64
2023-03-12T02:30:53.950Z,531.38
2023-03-12T02:35:53.860Z,524.77
2023-03-12T02:40:53.792Z,520.31
2023-03-12T02:45:53.743Z,518.71
2023-03-12T02:50:53.680Z,517.91
2023-03-12T02:55:53.570Z,519.91
2023-03-12T03:00:53.535Z,517.12
2023-03-12T03:05:53.463Z,518.31
2023-03-12T03:10:53.404Z,517.52
2023-03-12T03:15:53.372Z,516.72
2023-03-12T03:20:53.293Z,515.15
2023-03-12T03:25:53.199Z,514.36
2023-03-12T03:30:53.236Z,514.36
2023-03-12T03:35:53.088Z,512.02
2023-03-12T03:40:53.034Z,510.08
2023-03-12T03:45:52.987Z,512.02
2023-03-12T03:50:52.882Z,512.02
2023-03-12T03:55:52.827Z,509.31
2023-03-12T04:00:52.754Z,505.11
2023-03-12T04:05:52.684Z,503.23
2023-03-12T04:10:52.627Z,500.24
2023-03-12T04:15:52.633Z,502.48
2023-03-12T04:20:52.475Z,507.39
2023-03-12T04:25:52.416Z,512.41
2023-03-12T04:30:52.398Z,518.71
2023-03-12T04:35:52.320Z,522.33
2023-03-12T04:40:52.282Z,528.05
2023-03-12T04:45:52.163Z,537.74
2023-03-12T04:50:52.112Z,541.19
2023-03-12T04:55:52.046Z,545.57
2023-03-12T05:00:52.013Z,554.09
2023-03-12T05:05:51.914Z,568.09
2023-03-12T05:10:51.881Z,577.33
2023-03-12T05:15:51.772Z,584.84
2023-03-12T05:20:51.740Z,590.99
2023-03-12T05:25:51.664Z,590.48
2023-03-12T05:30:51.614Z,587.39
2023-03-12T05:35:51.595Z,588.93
2023-03-12T05:40:51.518Z,597.81
2023-03-12T05:45:51.428Z,595.69
2023-03-12T05:50:51.353Z,598.34
2023-03-12T05:55:51.284Z,601.00
2023-03-12T06:00:51.223Z,610.25
2023-03-12T06:05:51.150Z,610.80
2023-03-12T06:10:51.101Z,615.82
2023-03-12T06:15:51.021Z,612.47
2023-03-12T06:20:50.972Z,614.70
2023-03-12T06:25:50.887Z,608.05
2023-03-12T06:30:50.842Z,606.95
2023-03-12T06:35:50.780Z,602.08
2023-03-12T06:40:50.703Z,594.12
2023-03-12T06:45:50.666Z,589.45
2023-03-12T06:50:50.579Z,586.37
2023-03-12T06:55:50.507Z,582.32
2023-03-12T07:01:05.510Z,585.86
2023-03-12T07:05:57.936Z,585.35
2023-03-12T07:11:00.754Z,581.82
2023-03-12T07:15:57.890Z,580.81
2023-03-12T07:20:57.718Z,574.38
2023-03-12T07:25:57.655Z,568.09
2023-03-12T07:30:57.628Z,572.43
2023-03-12T07:35:57.635Z,573.89
2023-03-12T07:40:57.463Z,569.05
2023-03-12T07:45:57.406Z,565.71
2023-03-12T07:50:57.316Z,561.47
2023-03-12T07:55:57.433Z,558.22
2023-03-12T08:00:57.300Z,558.22
2023-03-12T08:05:57.227Z,555.91
2023-03-12T08:10:57.070Z,547.79
2023-03-12T08:15:57.060Z,550.47
2023-03-12T08:20:56.952Z,548.68
2023-03-12T08:25:56.974Z,544.25
2023-03-12T08:30:56.803Z,541.63
2023-03-12T08:35:56.773Z,548.68
2023-03-12T08:40:56.676Z,547.79
2023-03-12T08:45:56.689Z,547.79
2023-03-12T08:50:56.545Z,552.27
2023-03-12T08:55:56.505Z,549.12
2023-03-12T09:00:56.449Z,543.37
2023-03-12T09:05:56.401Z,544.69
2023-03-12T09:10:56.291Z,535.60
2023-03-12T09:15:56.259Z,526.82
2023-03-12T09:20:56.159Z,524.36
2023-03-12T09:25:56.112Z,530.97
2023-03-12T09:30:56.135Z,528.47
2023-03-12T09:35:56.009Z,521.52
2023-03-12T09:40:55.883Z,520.31
2023-03-12T09:45:55.884Z,511.63
2023-03-12T09:50:55.848Z,507.39
2023-03-12T09:55:55.698Z,506.63
2023-03-12T10:00:55.654Z,502.85
2023-03-12T10:05:55.600Z,498.02
2023-03-12T10:10:55.524Z,491.49
2023-03-12T10:15:55.584Z,489.00
2023-03-12T10:20:55.406Z,484.08
2023-03-12T10:25:55.367Z,481.32
2023-03-12T10:30:55.323Z,478.24
2023-03-12T10:35:55.273Z,469.91
2023-03-12T10:40:55.159Z,463.14
2023-03-12T10:45:55.088Z,457.48
2023-03-12T10:50:55.003Z,449.25
2023-03-12T10:55:54.950Z,443.93
2023-03-12T11:00:54.880Z,440.16
2023-03-12T11:05:54.855Z,429.78
2023-03-12T11:10:54.733Z,420.14
2023-03-12T11:15:54.772Z,415.23
2023-03-12T11:20:54.644Z,405.49
2023-03-12T11:25:54.543Z,399.95
2023-03-12T11:30:54.469Z,394.11
2023-03-12T11:35:54.463Z,386.21
2023-03-12T11:40:54.360Z,375.55
2023-03-12T11:45:54.269Z,371.35
2023-03-12T11:50:54.459Z,368.87
2023-03-12T11:55:54.172Z,359.68
2023-03-12T12:00:54.269Z,343.66
2023-03-12T12:05:54.053Z,338.75
2023-03-12T12:10:53.952Z,334.65
2023-03-12T12:15:53.913Z,330.64
2023-03-12T12:20:53.836Z,323.55
2023-03-12T12:25:53.780Z,320.43
2023-03-12T12:30:53.692Z,316.76
2023-03-12T12:35:53.669Z,313.76
2023-03-12T12:40:53.552Z,312.58
2023-03-12T12:45:53.511Z,313.17
2023-03-12T12:50:53.403Z,310.53
2023-03-12T12:55:53.396Z,308.22
2023-03-12T13:00:53.353Z,307.08
2023-03-12T13:05:53.222Z,305.11
2023-03-12T13:10:57.920Z,299.33
2023-03-12T13:15:54.125Z,297.45
2023-03-12T13:20:53.028Z,295.33
2023-03-12T13:25:52.992Z,295.86
2023-03-12T13:30:52.957Z,301.77
2023-03-12T13:35:52.888Z,310.24
2023-03-12T13:40:52.752Z,309.66
2023-03-12T13:45:52.737Z,306.51
2023-03-12T13:50:52.623Z,297.71
2023-03-12T13:55:52.565Z,292.21
2023-03-12T14:00:52.520Z,306.23
2023-03-12T14:05:52.522Z,313.17
2023-03-12T14:10:53.306Z,319.19
2023-03-12T14:15:52.461Z,315.55
2023-03-12T14:20:52.268Z,315.85
2023-03-12T14:25:52.169Z,313.46
2023-03-12T14:30:53.152Z,312.28
2023-03-12T14:35:52.087Z,312.28
2023-03-12T14:40:51.965Z,309.66
2023-03-12T14:45:51.924Z,305.95
2023-03-12T14:50:51.840Z,310.82
2023-03-12T14:55:51.826Z,314.06
2023-03-12T15:00:52.632Z,319.50
2023-03-12T15:05:51.621Z,326.74
2023-03-12T15:10:52.585Z,331.97
2023-03-12T15:15:52.502Z,324.18
2023-03-12T15:20:51.418Z,318.58
2023-03-12T15:25:51.384Z,316.15
2023-03-12T15:30:51.338Z,317.97
2023-03-12T15:35:51.406Z,321.36
2023-03-12T15:40:52.122Z,324.18
2023-03-12T15:45:52.286Z,328.35
2023-03-12T15:50:52.057Z,336.34
2023-03-12T15:55:50.964Z,338.75
2023-03-12T16:00:50.952Z,336.00
2023-03-12T16:05:50.918Z,339.09
2023-03-12T16:10:50.797Z,335.66
2023-03-12T16:15:50.728Z,338.75
2023-03-12T16:20:50.639Z,337.03
2023-03-12T16:25:50.567Z,335.32
2023-03-12T16:30:51.438Z,334.31
2023-03-12T16:35:50.488Z,333.97
2023-03-12T16:40:51.704Z,330.64
2023-03-12T16:45:50.335Z,326.74
2023-03-12T16:50:50.241Z,328.03
2023-03-12T16:55:50.218Z,327.38
2023-03-12T17:00:50.221Z,327.06
2023-03-12T17:05:51.044Z,326.10
2023-03-12T17:10:51.070Z,328.68
2023-03-12T17:15:49.969Z,327.06
2023-03-12T17:20:49.832Z,329.99
2023-03-12T17:25:49.774Z,328.03
2023-03-12T17:30:49.739Z,328.68
2023-03-12T17:35:49.749Z,324.50
2023-03-12T17:40:49.577Z,321.98
2023-03-12T17:45:49.549Z,321.67
2023-03-12T17:50:49.434Z,318.58
2023-03-12T17:55:49.397Z,314.36
2023-03-12T18:00:49.275Z,312.58
2023-03-12T18:05:49.995Z,311.40
2023-03-12T18:10:49.188Z,309.08
2023-03-12T18:15:49.198Z,305.11
2023-03-12T18:20:49.085Z,303.15
2023-03-12T18:25:48.990Z,305.39
2023-03-12T18:30:49.053Z,304.55
2023-03-12T18:35:48.939Z,303.43
2023-03-12T18:40:48.808Z,302.88
2023-03-12T18:45:48.724Z,301.77
2023-03-12T18:50:48.650Z,305.11
2023-03-12T18:55:48.598Z,314.95
2023-03-12T19:00:48.519Z,320.74
2023-03-12T19:05:48.467Z,319.81
2023-03-12T19:10:48.410Z,317.36
2023-03-12T19:15:48.343Z,311.40
2023-03-12T19:20:48.932Z,311.99
2023-03-12T19:25:48.266Z,326.74
2023-03-12T19:30:48.116Z,327.06
2023-03-12T19:35:48.115Z,323.55
2023-03-12T19:40:48.171Z,318.27
2023-03-12T19:45:48.007Z,312.58
2023-03-12T19:50:47.880Z,307.08
2023-03-12T19:55:47.840Z,301.23
2023-03-12T20:00:47.709Z,299.33
2023-03-12T20:05:47.712Z,296.91
2023-03-12T20:10:47.595Z,294.80
2023-03-12T20:15:48.596Z,293.76
2023-03-12T20:20:47.491Z,292.98
2023-03-12T20:25:47.429Z,292.98
2023-03-12T20:30:47.323Z,296.38
2023-03-12T20:35:50.169Z,299.33
2023-03-12T20:40:47.234Z,300.95
2023-03-12T20:45:47.180Z,303.15
2023-03-12T20:50:47.160Z,304.27
2023-03-12T20:55:47.035Z,305.11
2023-03-12T21:00:46.965Z,306.51
2023-03-12T21:05:46.886Z,309.66
2023-03-12T21:10:46.797Z,312.58
2023-03-12T21:15:46.751Z,315.85
2023-03-12T21:20:46.721Z,318.58
2023-03-12T21:25:46.647Z,318.89
2023-03-12T21:30:46.633Z,317.97
2023-03-12T21:35:46.761Z,315.85
2023-03-12T21:40:46.421Z,316.45
2023-03-12T21:45:46.378Z,315.55
2023-03-12T21:50:47.116Z,316.76
2023-03-12T21:55:46.274Z,318.89
2023-03-12T22:00:46.162Z,318.27
2023-03-12T22:05:46.083Z,321.05
2023-03-12T22:10:47.822Z,324.50
2023-03-12T22:15:46.401Z,328.68
2023-03-12T22:20:45.913Z,330.97
2023-03-12T22:25:45.869Z,328.35
2023-03-12T22:30:45.757Z,328.03
2023-03-12T22:35:45.733Z,326.74
2023-03-12T22:40:45.596Z,330.32
2023-03-12T22:45:45.570Z,332.30
2023-03-12T22:50:45.529Z,334.65
2023-03-12T22:55:45.530Z,334.65
2023-03-12T23:00:45.382Z,333.64
2023-03-12T23:05:45.320Z,330.64
2023-03-12T23:10:45.227Z,331.64
2023-03-12T23:15:45.221Z,333.30
2023-03-12T23:20:45.104Z,334.65
2023-03-12T23:25:45.148Z,332.30
2023-03-12T23:30:44.917Z,328.03
2023-03-12T23:35:45.016Z,324.18
2023-03-12T23:40:44.820Z,319.50
2023-03-12T23:45:44.815Z,317.67
2023-03-12T23:50:44.703Z,316.76
2023-03-12T23:55:44.629Z,315.55
